createdAt,value
2022-10-18T00:01:42.688Z,101833.72
2022-10-18T00:04:10.683Z,101839.09
2022-10-18T00:06:41.206Z,101835.69
2022-10-18T00:09:11.700Z,101844.47
2022-10-18T00:11:41.486Z,101837.19
2022-10-18T00:14:09.837Z,101827.22
2022-10-18T00:16:37.778Z,101827.91
2022-10-18T00:19:05.740Z,101839.72
2022-10-18T00:21:33.768Z,101839.53
2022-10-18T00:24:01.701Z,101841.00
2022-10-18T00:26:32.415Z,101834.81
2022-10-18T00:29:05.223Z,101844.41
2022-10-18T00:31:35.004Z,101850.94
2022-10-18T00:34:05.004Z,101852.53
2022-10-18T00:36:35.215Z,101848.59
2022-10-18T00:39:04.195Z,101853.50
2022-10-18T00:41:34.464Z,101856.34
2022-10-18T00:44:05.987Z,101858.41
2022-10-18T00:46:35.498Z,101833.09
2022-10-18T00:49:06.405Z,101861.84
2022-10-18T00:51:39.479Z,101869.31
2022-10-18T00:54:07.528Z,101862.03
2022-10-18T00:56:35.926Z,101861.22
2022-10-18T00:59:05.441Z,101864.88
2022-10-18T01:01:33.370Z,101863.16
2022-10-18T01:04:01.900Z,101868.53
2022-10-18T01:06:30.727Z,101863.06
2022-10-18T01:09:10.956Z,101859.34
2022-10-18T01:11:55.609Z,101868.28
2022-10-18T01:14:36.558Z,101864.72
2022-10-18T01:17:13.151Z,101865.84
2022-10-18T01:20:08.597Z,101872.06
2022-10-18T01:22:40.492Z,101866.31
2022-10-18T01:25:21.798Z,101865.97
2022-10-18T01:27:57.680Z,101865.84
2022-10-18T01:30:39.072Z,101864.97
2022-10-18T01:33:16.773Z,101850.00
2022-10-18T01:35:50.035Z,101850.78
2022-10-18T01:38:19.721Z,101845.59
2022-10-18T01:40:51.434Z,101839.41
2022-10-18T01:43:22.614Z,101837.84
2022-10-18T01:45:55.546Z,101833.63
2022-10-18T01:48:23.882Z,101830.22
2022-10-18T01:50:53.221Z,101803.34
2022-10-18T01:53:31.341Z,101832.44
2022-10-18T01:56:38.652Z,101821.84
2022-10-18T01:59:23.408Z,101825.63
2022-10-18T02:02:02.535Z,101821.38
2022-10-18T02:04:35.720Z,101833.88
2022-10-18T02:07:08.461Z,101834.63
2022-10-18T02:09:42.531Z,101830.22
2022-10-18T02:12:14.598Z,101823.81
2022-10-18T02:14:44.610Z,101820.25
2022-10-18T02:17:16.193Z,101820.44
2022-10-18T02:19:47.331Z,101816.13
2022-10-18T02:22:17.406Z,101826.00
2022-10-18T02:24:49.514Z,101814.00
2022-10-18T02:27:17.732Z,101820.25
2022-10-18T02:29:46.562Z,101826.31
2022-10-18T02:32:21.034Z,101829.09
2022-10-18T02:34:54.935Z,101818.25
2022-10-18T02:37:23.659Z,101813.06
2022-10-18T02:39:52.752Z,101809.81
2022-10-18T02:42:20.640Z,101809.63
2022-10-18T02:44:48.530Z,101803.56
2022-10-18T02:47:17.784Z,101802.06
2022-10-18T02:49:45.664Z,101815.31
2022-10-18T02:52:13.549Z,101815.00
2022-10-18T02:54:41.457Z,101815.97
2022-10-18T02:57:09.532Z,101812.50
2022-10-18T02:59:37.522Z,101805.38
2022-10-18T03:02:05.504Z,101809.88
2022-10-18T03:04:35.852Z,101802.13
2022-10-18T03:07:03.953Z,101796.63
2022-10-18T03:09:31.849Z,101800.16
2022-10-18T03:11:59.824Z,101801.25
2022-10-18T03:14:27.679Z,101808.50
2022-10-18T03:16:55.753Z,101805.81
2022-10-18T03:19:23.826Z,101813.16
2022-10-18T03:21:53.062Z,101809.53
2022-10-18T03:24:21.019Z,101804.88
2022-10-18T03:26:48.900Z,101803.31
2022-10-18T03:29:16.831Z,101800.75
2022-10-18T03:31:44.749Z,101804.31
2022-10-18T03:34:12.696Z,101803.31
2022-10-18T03:36:41.363Z,101794.47
2022-10-18T03:39:12.206Z,101791.09
2022-10-18T03:41:40.183Z,101798.34
2022-10-18T03:44:08.277Z,101794.13
2022-10-18T03:46:36.198Z,101796.63
2022-10-18T03:49:04.642Z,101789.34
2022-10-18T03:51:32.592Z,101783.47
2022-10-18T03:54:00.507Z,101786.88
2022-10-18T03:56:29.748Z,101784.44
2022-10-18T03:58:58.076Z,101772.81
2022-10-18T04:01:26.012Z,101775.56
2022-10-18T04:03:53.958Z,101776.59
2022-10-18T04:06:21.871Z,101777.75
2022-10-18T04:08:49.974Z,101773.91
2022-10-18T04:11:17.847Z,101780.94
2022-10-18T04:13:47.196Z,101787.75
2022-10-18T04:16:15.085Z,101782.91
2022-10-18T04:18:44.060Z,101786.69
2022-10-18T04:21:11.993Z,101787.63
2022-10-18T04:23:39.914Z,101794.03
2022-10-18T04:26:07.863Z,101792.41
2022-10-18T04:28:39.889Z,101788.81
2022-10-18T04:31:10.038Z,101802.38
2022-10-18T04:33:38.046Z,101793.47
2022-10-18T04:36:06.282Z,101790.84
2022-10-18T04:38:34.381Z,101790.97
2022-10-18T04:41:02.234Z,101792.59
2022-10-18T04:43:30.449Z,101774.00
2022-10-18T04:45:58.483Z,101790.53
2022-10-18T04:48:27.883Z,101791.72
2022-10-18T04:50:55.857Z,101788.28
2022-10-18T04:53:23.783Z,101797.09
2022-10-18T04:55:52.327Z,101790.84
2022-10-18T04:58:20.789Z,101793.59
2022-10-18T05:00:48.829Z,101798.09
2022-10-18T05:03:17.005Z,101802.16
2022-10-18T05:06:02.734Z,101804.97
2022-10-18T05:08:31.611Z,101804.09
2022-10-18T05:10:59.894Z,101806.88
2022-10-18T05:13:28.163Z,101797.16
2022-10-18T05:15:56.233Z,101805.50
2022-10-18T05:18:24.210Z,101804.63
2022-10-18T05:20:53.525Z,101805.50
2022-10-18T05:23:21.448Z,101795.19
2022-10-18T05:25:49.532Z,101804.03
2022-10-18T05:31:08.287Z,101818.84
2022-10-18T05:33:36.534Z,101818.78
2022-10-18T05:36:06.219Z,101817.81
2022-10-18T05:38:34.232Z,101815.94
2022-10-18T05:41:05.369Z,101814.84
2022-10-18T05:43:33.303Z,101816.81
2022-10-18T05:46:01.364Z,101815.00
2022-10-18T05:48:29.271Z,101815.22
2022-10-18T05:50:59.138Z,101819.88
2022-10-18T05:53:36.688Z,101814.25
2022-10-18T05:56:06.109Z,101823.19
2022-10-18T05:58:34.081Z,101820.03
2022-10-18T06:01:02.626Z,101817.25
2022-10-18T06:03:31.332Z,101832.94
2022-10-18T06:06:02.163Z,101837.59
2022-10-18T06:08:31.665Z,101836.72
2022-10-18T06:11:00.118Z,101835.53
2022-10-18T06:13:30.075Z,101824.06
2022-10-18T06:16:00.444Z,101837.50
2022-10-18T06:18:29.709Z,101839.28
2022-10-18T06:20:59.065Z,101852.44
2022-10-18T06:23:27.202Z,101847.94
2022-10-18T06:25:59.786Z,101860.66
2022-10-18T06:28:28.392Z,101859.53
2022-10-18T06:30:56.433Z,101857.81
2022-10-18T06:33:24.578Z,101860.34
2022-10-18T06:35:57.327Z,101861.28
2022-10-18T06:38:25.422Z,101861.81
2022-10-18T06:40:53.990Z,101856.50
2022-10-18T06:43:23.672Z,101865.44
2022-10-18T06:45:52.152Z,101864.50
2022-10-18T06:48:21.051Z,101869.94
2022-10-18T06:50:53.897Z,101872.69
2022-10-18T06:53:21.855Z,101870.94
2022-10-18T06:55:49.852Z,101874.50
2022-10-18T06:58:17.997Z,101873.91
2022-10-18T07:00:47.579Z,101867.19
2022-10-18T07:03:15.498Z,101872.38
2022-10-18T07:05:49.883Z,101858.59
2022-10-18T07:08:21.374Z,101867.81
2022-10-18T07:10:53.844Z,101867.31
2022-10-18T07:13:37.823Z,101876.31
2022-10-18T07:16:11.563Z,101872.31
2022-10-18T07:18:43.511Z,101870.38
2022-10-18T07:21:14.155Z,101861.81
2022-10-18T07:23:43.499Z,101870.38
2022-10-18T07:26:15.318Z,101874.53
2022-10-18T07:28:44.180Z,101865.72
2022-10-18T07:31:14.209Z,101869.16
2022-10-18T07:33:42.936Z,101873.16
2022-10-18T07:36:13.089Z,101874.16
2022-10-18T07:38:41.536Z,101876.09
2022-10-18T07:41:12.207Z,101882.16
2022-10-18T07:43:43.120Z,101876.19
2022-10-18T07:46:11.111Z,101866.06
2022-10-18T07:48:40.612Z,101855.81
2022-10-18T07:51:08.889Z,101863.44
2022-10-18T07:53:37.144Z,101861.31
2022-10-18T07:56:09.736Z,101861.88
2022-10-18T07:58:38.577Z,101873.81
2022-10-18T08:01:08.308Z,101875.00
2022-10-18T08:03:36.828Z,101879.59
2022-10-18T08:06:09.034Z,101883.97
2022-10-18T08:08:38.250Z,101883.25
2022-10-18T08:11:08.679Z,101877.22
2022-10-18T08:13:37.189Z,101871.53
2022-10-18T08:16:07.629Z,101871.03
2022-10-18T08:18:36.138Z,101864.78
2022-10-18T08:21:07.566Z,101865.97
2022-10-18T08:23:36.283Z,101856.63
2022-10-18T08:26:05.455Z,101863.53
2022-10-18T08:28:33.835Z,101864.00
2022-10-18T08:31:04.754Z,101863.34
2022-10-18T08:33:33.309Z,101867.63
2022-10-18T08:36:05.708Z,101869.59
2022-10-18T08:38:37.303Z,101866.16
2022-10-18T08:41:40.951Z,101866.84
2022-10-18T08:44:15.909Z,101874.44
2022-10-18T08:46:48.033Z,101881.31
2022-10-18T08:49:28.363Z,101887.72
2022-10-18T08:51:57.709Z,101882.91
2022-10-18T08:54:33.030Z,101884.28
2022-10-18T08:57:02.685Z,101900.03
2022-10-18T08:59:38.908Z,101892.19
2022-10-18T09:02:18.183Z,101900.34
2022-10-18T09:04:50.269Z,101906.69
2022-10-18T09:07:34.393Z,101906.94
2022-10-18T09:10:09.543Z,101908.88
2022-10-18T09:12:57.203Z,101917.91
2022-10-18T09:15:32.839Z,101915.53
2022-10-18T09:18:14.017Z,101911.91
2022-10-18T09:20:51.764Z,101923.75
2022-10-18T09:23:21.578Z,101925.53
2022-10-18T09:25:57.013Z,101921.69
2022-10-18T09:28:37.290Z,101903.03
2022-10-18T09:31:09.643Z,101925.47
2022-10-18T09:33:47.680Z,101921.03
2022-10-18T09:36:20.384Z,101924.53
2022-10-18T09:38:51.785Z,101927.94
2022-10-18T09:41:25.818Z,101940.25
2022-10-18T09:43:59.882Z,101931.94
2022-10-18T09:46:32.303Z,101924.19
2022-10-18T09:49:04.772Z,101931.00
2022-10-18T09:51:37.296Z,101928.38
2022-10-18T09:54:16.947Z,101931.72
2022-10-18T09:56:51.040Z,101930.91
2022-10-18T09:59:33.554Z,101936.81
2022-10-18T10:02:05.844Z,101926.72
2022-10-18T10:04:34.132Z,101931.78
2022-10-18T10:07:03.345Z,101931.78
2022-10-18T10:09:38.319Z,101924.09
2022-10-18T10:12:27.151Z,101927.19
2022-10-18T10:14:55.091Z,101929.16
2022-10-18T10:17:26.070Z,101928.91
2022-10-18T10:20:00.443Z,101940.66
2022-10-18T10:22:35.972Z,101930.81
2022-10-18T10:25:04.514Z,101942.88
2022-10-18T10:27:41.033Z,101933.09
2022-10-18T10:30:25.406Z,101944.53
2022-10-18T10:32:54.972Z,101939.75
2022-10-18T10:35:42.233Z,101943.03
2022-10-18T10:38:25.088Z,101937.59
2022-10-18T10:40:53.405Z,101938.31
2022-10-18T10:43:42.249Z,101941.44
2022-10-18T10:46:12.446Z,101934.13
2022-10-18T10:48:50.499Z,101920.13
2022-10-18T10:51:29.759Z,101927.75
2022-10-18T10:54:03.641Z,101929.97
2022-10-18T10:56:34.215Z,101925.91
2022-10-18T10:59:16.776Z,101924.59
2022-10-18T11:01:45.215Z,101922.97
2022-10-18T11:04:30.357Z,101929.53
2022-10-18T11:07:07.835Z,101928.44
2022-10-18T11:09:49.528Z,101931.75
2022-10-18T11:12:34.590Z,101920.25
2022-10-18T11:15:20.174Z,101921.63
2022-10-18T11:17:56.556Z,101921.75
2022-10-18T11:20:30.404Z,101921.09
2022-10-18T11:23:01.739Z,101916.44
2022-10-18T11:25:47.696Z,101918.16
2022-10-18T11:28:24.835Z,101915.09
2022-10-18T11:31:11.568Z,101919.78
2022-10-18T11:34:08.156Z,101912.44
2022-10-18T11:36:56.470Z,101900.91
2022-10-18T11:39:47.691Z,101898.53
2022-10-18T11:42:24.811Z,101909.22
2022-10-18T11:45:02.827Z,101893.88
2022-10-18T11:47:41.919Z,101901.47
2022-10-18T11:50:18.991Z,101891.75
2022-10-18T11:52:57.630Z,101897.88
2022-10-18T11:55:37.788Z,101897.00
2022-10-18T11:58:19.278Z,101898.16
2022-10-18T12:00:52.336Z,101851.16
2022-10-18T12:03:31.461Z,101888.94
2022-10-18T12:06:04.820Z,101909.53
2022-10-18T12:08:37.236Z,101954.88
2022-10-18T12:11:13.715Z,101922.44
2022-10-18T12:13:47.567Z,101901.75
2022-10-18T12:16:16.543Z,101907.44
2022-10-18T12:21:29.881Z,101935.25
2022-10-18T12:24:01.119Z,101897.88
2022-10-18T12:26:31.031Z,101991.34
2022-10-18T12:29:13.580Z,101939.41
2022-10-18T12:31:45.443Z,101912.78
2022-10-18T12:34:27.059Z,101897.59
2022-10-18T12:37:15.166Z,101885.25
2022-10-18T12:40:08.632Z,101872.22
2022-10-18T12:42:41.548Z,101868.47
2022-10-18T12:45:24.082Z,101866.25
2022-10-18T12:47:52.767Z,101879.03
2022-10-18T12:50:31.843Z,101875.84
2022-10-18T12:53:07.001Z,101888.44
2022-10-18T12:55:37.834Z,101882.22
2022-10-18T12:58:23.137Z,101879.84
2022-10-18T13:00:56.836Z,101874.44
2022-10-18T13:03:40.890Z,101877.44
2022-10-18T13:06:10.233Z,101882.06
2022-10-18T13:08:42.054Z,101890.09
2022-10-18T13:11:30.216Z,101887.72
2022-10-18T13:14:44.098Z,101877.81
2022-10-18T13:17:31.424Z,101883.03
2022-10-18T13:20:25.517Z,101887.84
2022-10-18T13:23:11.260Z,101879.13
2022-10-18T13:25:56.024Z,101890.78
2022-10-18T13:28:31.949Z,101878.81
2022-10-18T13:31:10.939Z,101887.25
2022-10-18T13:33:41.698Z,101891.13
2022-10-18T13:36:24.645Z,101893.69
2022-10-18T13:39:07.315Z,101896.59
2022-10-18T13:42:10.957Z,101897.75
2022-10-18T13:44:40.149Z,101901.13
2022-10-18T13:47:15.083Z,101901.88
2022-10-18T13:50:00.575Z,101905.97
2022-10-18T13:52:44.244Z,101899.38
2022-10-18T13:55:34.829Z,101906.88
2022-10-18T13:58:13.253Z,101872.97
2022-10-18T14:01:03.376Z,101903.31
2022-10-18T14:04:00.576Z,101910.25
2022-10-18T14:06:34.864Z,101907.41
2022-10-18T14:09:19.293Z,101918.19
2022-10-18T14:12:02.479Z,101912.78
2022-10-18T14:14:36.461Z,101916.00
2022-10-18T14:17:12.047Z,101930.13
2022-10-18T14:19:47.952Z,101918.34
2022-10-18T14:22:21.917Z,101928.72
2022-10-18T14:24:53.931Z,101923.13
2022-10-18T14:27:24.808Z,101925.84
2022-10-18T14:30:10.912Z,101938.72
2022-10-18T14:32:38.906Z,101937.50
2022-10-18T14:35:32.129Z,101933.66
2022-10-18T14:38:01.974Z,101928.97
2022-10-18T14:40:33.208Z,101921.09
2022-10-18T14:43:12.398Z,101940.25
2022-10-18T14:45:40.497Z,101929.69
2022-10-18T14:48:14.095Z,101937.56
2022-10-18T14:50:43.905Z,101932.66
2022-10-18T14:53:16.781Z,101931.88
2022-10-18T14:55:44.835Z,101935.38
2022-10-18T14:58:17.099Z,101933.66
2022-10-18T15:00:48.530Z,101945.81
2022-10-18T15:03:18.548Z,101944.94
2022-10-18T15:05:54.683Z,101938.94
2022-10-18T15:08:24.624Z,101937.19
2022-10-18T15:10:53.321Z,101941.84
2022-10-18T15:13:23.104Z,101938.38
2022-10-18T15:15:51.192Z,101942.72
2022-10-18T15:18:22.563Z,101940.44
2022-10-18T15:21:21.063Z,101929.44
2022-10-18T15:23:49.431Z,101940.06
2022-10-18T15:26:25.396Z,101942.47
2022-10-18T15:29:00.402Z,101938.41
2022-10-18T15:31:34.619Z,101924.28
2022-10-18T15:34:10.666Z,101934.38
2022-10-18T15:36:39.068Z,101937.03
2022-10-18T15:39:09.599Z,101932.47
2022-10-18T15:41:42.299Z,101930.84
2022-10-18T15:44:22.347Z,101935.22
2022-10-18T15:46:52.893Z,101940.97
2022-10-18T15:49:51.250Z,101940.16
2022-10-18T15:52:39.009Z,101941.47
2022-10-18T15:55:56.233Z,101941.22
2022-10-18T15:58:27.218Z,101938.19
2022-10-18T16:00:59.708Z,101941.31
2022-10-18T16:03:28.739Z,101948.06
2022-10-18T16:06:00.743Z,101953.81
2022-10-18T16:08:30.653Z,101953.41
2022-10-18T16:10:59.769Z,101958.31
2022-10-18T16:13:27.906Z,101946.41
2022-10-18T16:15:57.319Z,101956.56
2022-10-18T16:18:26.151Z,101951.97
2022-10-18T16:20:54.140Z,101952.34
2022-10-18T16:23:24.603Z,101958.69
2022-10-18T16:25:53.375Z,101967.78
2022-10-18T16:28:23.257Z,101963.78
2022-10-18T16:30:55.951Z,101962.34
2022-10-18T16:33:26.127Z,101965.50
2022-10-18T16:35:54.773Z,101962.28
2022-10-18T16:38:32.514Z,101967.72
2022-10-18T16:41:04.621Z,101977.00
2022-10-18T16:43:33.157Z,101975.28
2022-10-18T16:46:01.798Z,101979.22
2022-10-18T16:48:31.494Z,101981.41
2022-10-18T16:50:59.738Z,101986.84
2022-10-18T16:53:28.131Z,101994.19
2022-10-18T16:55:58.302Z,101990.22
2022-10-18T16:58:27.777Z,101996.78
2022-10-18T17:00:56.226Z,102000.53
2022-10-18T17:03:24.896Z,102000.88
2022-10-18T17:05:56.161Z,102006.47
2022-10-18T17:08:26.324Z,102005.19
2022-10-18T17:10:56.882Z,102014.97
2022-10-18T17:13:25.724Z,102002.81
2022-10-18T17:15:54.105Z,102010.31
2022-10-18T17:18:26.350Z,102019.19
2022-10-18T17:20:56.499Z,102025.75
2022-10-18T17:23:24.482Z,102028.66
2022-10-18T17:26:05.308Z,102033.41
2022-10-18T17:28:35.293Z,102027.56
2022-10-18T17:31:03.305Z,102035.69
2022-10-18T17:33:31.359Z,102035.06
2022-10-18T17:36:01.483Z,102029.13
2022-10-18T17:38:29.557Z,102033.00
2022-10-18T17:40:57.510Z,102038.38
2022-10-18T17:43:25.791Z,102046.66
2022-10-18T17:45:56.955Z,102050.47
2022-10-18T17:48:25.646Z,102056.19
2022-10-18T17:50:53.975Z,102060.88
2022-10-18T17:53:28.462Z,102059.34
2022-10-18T17:56:02.446Z,102060.31
2022-10-18T17:58:32.028Z,102069.09
2022-10-18T18:01:09.424Z,102064.88
2022-10-18T18:03:37.378Z,102062.84
2022-10-18T18:06:19.306Z,102062.84
2022-10-18T18:08:51.869Z,102048.97
2022-10-18T18:11:19.829Z,102057.91
2022-10-18T18:13:48.150Z,102053.13
2022-10-18T18:16:18.082Z,102062.28
2022-10-18T18:18:47.118Z,102071.25
2022-10-18T18:21:15.263Z,102067.81
2022-10-18T18:23:43.250Z,102050.53
2022-10-18T18:26:12.600Z,102076.94
2022-10-18T18:28:40.730Z,102077.03
2022-10-18T18:31:10.224Z,102079.97
2022-10-18T18:33:38.717Z,102076.66
2022-10-18T18:36:07.710Z,102071.66
2022-10-18T18:38:38.353Z,102082.13
2022-10-18T18:41:08.335Z,102062.69
2022-10-18T18:43:39.649Z,102081.25
2022-10-18T18:46:08.368Z,102072.66
2022-10-18T18:48:37.387Z,102085.19
2022-10-18T18:51:06.957Z,102081.53
2022-10-18T18:53:35.122Z,102074.50
2022-10-18T18:56:04.626Z,102072.13
2022-10-18T18:58:32.643Z,102073.94
2022-10-18T19:01:07.618Z,102073.72
2022-10-18T19:03:35.901Z,102070.34
2022-10-18T19:06:05.472Z,102066.09
2022-10-18T19:08:36.081Z,102068.78
2022-10-18T19:11:08.038Z,102059.91
2022-10-18T19:13:37.373Z,102063.47
2022-10-18T19:16:19.632Z,102068.91
2022-10-18T19:18:55.194Z,102064.44
2022-10-18T19:21:23.946Z,102064.50
2022-10-18T19:23:52.175Z,102064.69
2022-10-18T19:26:27.100Z,102068.28
2022-10-18T19:28:55.407Z,102067.53
2022-10-18T19:31:24.927Z,102079.84
2022-10-18T19:33:59.335Z,102080.69
2022-10-18T19:36:28.569Z,102084.28
2022-10-18T19:38:56.880Z,102083.59
2022-10-18T19:43:54.032Z,102091.91
2022-10-18T19:46:22.183Z,102087.41
2022-10-18T19:48:54.001Z,102089.91
2022-10-18T19:51:25.517Z,102098.59
2022-10-18T19:53:57.215Z,102104.53
2022-10-18T19:56:26.799Z,102106.78
2022-10-18T19:58:55.514Z,102115.63
2022-10-18T20:01:23.634Z,102109.34
2022-10-18T20:03:53.026Z,102115.50
2022-10-18T20:06:21.752Z,102106.53
2022-10-18T20:08:50.397Z,102109.88
2022-10-18T20:11:20.089Z,102097.53
2022-10-18T20:13:48.239Z,102104.47
2022-10-18T20:16:18.293Z,102110.66
2022-10-18T20:18:46.342Z,102106.22
2022-10-18T20:21:17.721Z,102113.91
2022-10-18T20:23:46.034Z,102092.03
2022-10-18T20:26:21.708Z,102113.81
2022-10-18T20:28:56.126Z,102115.38
2022-10-18T20:31:25.694Z,102112.53
2022-10-18T20:33:58.994Z,102114.44
2022-10-18T20:36:29.612Z,102119.44
2022-10-18T20:38:58.667Z,102123.00
2022-10-18T20:41:28.980Z,102115.69
2022-10-18T20:43:58.877Z,102107.59
2022-10-18T20:46:28.144Z,102103.00
2022-10-18T20:48:56.124Z,102111.19
2022-10-18T20:51:24.537Z,102113.88
2022-10-18T20:53:54.306Z,102104.22
2022-10-18T20:56:25.195Z,102109.28
2022-10-18T20:58:55.684Z,102115.53
2022-10-18T21:01:25.618Z,102115.66
2022-10-18T21:03:55.637Z,102120.97
2022-10-18T21:06:25.269Z,102113.69
2022-10-18T21:08:55.754Z,102111.00
2022-10-18T21:11:24.518Z,102103.19
2022-10-18T21:13:52.825Z,102098.97
2022-10-18T21:16:20.880Z,102100.94
2022-10-18T21:18:49.451Z,102102.50
2022-10-18T21:21:19.175Z,102098.41
2022-10-18T21:23:47.443Z,102107.13
2022-10-18T21:26:18.402Z,102104.53
2022-10-18T21:28:46.903Z,102110.91
2022-10-18T21:31:17.280Z,102102.84
2022-10-18T21:33:46.869Z,102104.47
2022-10-18T21:36:15.691Z,102104.66
2022-10-18T21:38:45.415Z,102102.09
2022-10-18T21:41:14.569Z,102107.25
2022-10-18T21:43:45.823Z,102102.91
2022-10-18T21:46:15.102Z,102103.72
2022-10-18T21:48:45.132Z,102109.66
2022-10-18T21:51:14.255Z,102113.19
2022-10-18T21:53:44.592Z,102103.56
2022-10-18T21:56:15.134Z,102106.16
2022-10-18T21:58:44.851Z,102121.16
2022-10-18T22:01:16.355Z,102108.88
2022-10-18T22:03:45.886Z,102122.03
2022-10-18T22:06:16.239Z,102123.88
2022-10-18T22:08:45.886Z,102122.75
2022-10-18T22:11:14.674Z,102122.94
2022-10-18T22:13:44.414Z,102131.72
2022-10-18T22:16:14.358Z,102123.63
2022-10-18T22:18:42.774Z,102119.09
2022-10-18T22:21:12.193Z,102121.03
2022-10-18T22:23:42.412Z,102121.06
2022-10-18T22:26:13.534Z,102108.41
2022-10-18T22:28:43.155Z,102099.69
2022-10-18T22:31:17.706Z,102102.66
2022-10-18T22:33:45.861Z,102113.22
2022-10-18T22:36:19.181Z,102106.16
2022-10-18T22:38:47.114Z,102109.75
2022-10-18T22:41:15.262Z,102108.91
2022-10-18T22:43:43.663Z,102102.91
2022-10-18T22:46:13.233Z,102103.81
2022-10-18T22:48:43.584Z,102100.94
2022-10-18T22:51:12.222Z,102109.06
2022-10-18T22:53:41.786Z,102096.84
2022-10-18T22:56:12.260Z,102093.59
2022-10-18T22:58:40.192Z,102097.56
2022-10-18T23:01:09.791Z,102090.63
2022-10-18T23:03:38.382Z,102085.25
2022-10-18T23:06:19.838Z,102087.22
2022-10-18T23:08:48.219Z,102085.69
2022-10-18T23:11:16.855Z,102081.59
2022-10-18T23:13:44.957Z,102083.44
2022-10-18T23:16:13.070Z,102080.13
2022-10-18T23:18:41.198Z,102076.84
2022-10-18T23:21:14.038Z,102078.78
2022-10-18T23:23:43.614Z,102077.09
2022-10-18T23:26:13.637Z,102073.75
2022-10-18T23:28:43.503Z,102073.00
2022-10-18T23:31:13.367Z,102084.59
2022-10-18T23:33:42.188Z,102078.34
2022-10-18T23:36:11.781Z,102078.41
2022-10-18T23:38:41.027Z,102088.22
2022-10-18T23:41:11.681Z,102081.19
2022-10-18T23:43:39.988Z,102075.03
2022-10-18T23:46:08.260Z,102085.50
2022-10-18T23:48:36.478Z,102074.91
2022-10-18T23:51:05.224Z,102074.91
2022-10-18T23:53:34.810Z,102071.22
2022-10-18T23:56:04.570Z,102078.00
2022-10-18T23:58:34.182Z,102084.16
